createdAt,value
2022-08-07T00:01:12.484Z,101461.25
2022-08-07T00:03:50.535Z,101458.80
2022-08-07T00:06:29.273Z,101460.17
2022-08-07T00:09:16.396Z,101460.59
2022-08-07T00:11:55.494Z,101464.31
2022-08-07T00:14:34.790Z,101466.80
2022-08-07T00:17:06.716Z,101468.80
2022-08-07T00:20:01.174Z,101472.41
2022-08-07T00:22:35.154Z,101476.42
2022-08-07T00:25:15.675Z,101477.38
2022-08-07T00:27:53.323Z,101480.11
2022-08-07T00:30:27.313Z,101479.25
2022-08-07T00:32:58.308Z,101480.85
2022-08-07T00:35:30.223Z,101478.91
2022-08-07T00:37:59.334Z,101479.04
2022-08-07T00:40:39.320Z,101482.11
2022-08-07T00:43:59.753Z,101484.90
2022-08-07T00:46:03.189Z,101486.52
2022-08-07T00:48:33.493Z,101487.86
2022-08-07T00:51:03.459Z,101486.75
2022-08-07T00:53:39.161Z,101484.23
2022-08-07T00:56:21.179Z,101479.13
2022-08-07T00:58:50.102Z,101484.56
2022-08-07T01:01:20.047Z,101484.08
2022-08-07T01:03:56.509Z,101484.58
2022-08-07T01:06:30.014Z,101484.77
2022-08-07T01:09:02.843Z,101488.70
2022-08-07T01:12:20.796Z,101483.88
2022-08-07T01:14:32.215Z,101484.73
2022-08-07T01:17:09.784Z,101483.23
2022-08-07T01:19:41.925Z,101483.17
2022-08-07T01:22:22.773Z,101486.67
2022-08-07T01:25:00.992Z,101486.01
2022-08-07T01:27:35.518Z,101485.37
2022-08-07T01:30:08.966Z,101487.60
2022-08-07T01:32:40.322Z,101486.04
2022-08-07T01:35:17.152Z,101485.59
2022-08-07T01:37:46.972Z,101485.77
2022-08-07T01:40:22.240Z,101488.72
2022-08-07T01:42:58.847Z,101492.47
2022-08-07T01:45:37.225Z,101489.61
2022-08-07T01:48:20.677Z,101490.69
2022-08-07T01:52:01.032Z,101492.43
2022-08-07T01:54:12.761Z,101488.69
2022-08-07T01:56:54.236Z,101487.05
2022-08-07T01:59:30.904Z,101487.44
2022-08-07T02:02:06.697Z,101490.72
2022-08-07T02:04:52.531Z,101488.77
2022-08-07T02:07:45.206Z,101486.34
2022-08-07T02:10:24.890Z,101491.91
2022-08-07T02:12:56.033Z,101490.52
2022-08-07T02:15:30.017Z,101492.05
2022-08-07T02:17:59.925Z,101486.96
2022-08-07T02:20:30.601Z,101482.58
2022-08-07T02:23:02.443Z,101479.15
2022-08-07T02:26:10.371Z,101479.71
2022-08-07T02:28:24.568Z,101478.41
2022-08-07T02:30:55.478Z,101482.96
2022-08-07T02:33:32.837Z,101483.67
2022-08-07T02:36:26.993Z,101485.34
2022-08-07T02:38:59.692Z,101488.44
2022-08-07T02:41:33.511Z,101491.02
2022-08-07T02:44:06.963Z,101488.23
2022-08-07T02:46:46.613Z,101485.06
2022-08-07T02:49:56.017Z,101487.17
2022-08-07T02:52:10.795Z,101486.64
2022-08-07T02:54:43.134Z,101493.13
2022-08-07T02:57:15.290Z,101495.96
2022-08-07T02:59:54.829Z,101494.91
2022-08-07T03:02:24.294Z,101494.23
2022-08-07T03:04:56.438Z,101492.42
2022-08-07T03:08:05.073Z,101491.34
2022-08-07T03:10:17.356Z,101497.55
2022-08-07T03:12:48.262Z,101499.60
2022-08-07T03:15:30.150Z,101499.48
2022-08-07T03:18:09.841Z,101499.89
2022-08-07T03:20:47.420Z,101497.80
2022-08-07T03:23:19.355Z,101500.68
2022-08-07T03:25:58.371Z,101498.60
2022-08-07T03:28:38.492Z,101497.38
2022-08-07T03:31:23.717Z,101500.89
2022-08-07T03:33:57.145Z,101500.42
2022-08-07T03:36:29.746Z,101500.69
2022-08-07T03:39:05.592Z,101499.66
2022-08-07T03:41:42.542Z,101500.59
2022-08-07T03:44:31.763Z,101505.34
2022-08-07T03:47:10.812Z,101503.86
2022-08-07T03:49:41.741Z,101504.48
2022-08-07T03:52:22.647Z,101503.95
2022-08-07T03:54:57.450Z,101508.58
2022-08-07T03:58:34.691Z,101507.66
2022-08-07T04:00:30.279Z,101508.09
2022-08-07T04:03:03.812Z,101513.75
2022-08-07T04:05:42.268Z,101518.47
2022-08-07T04:08:15.887Z,101514.61
2022-08-07T04:10:54.353Z,101515.54
2022-08-07T04:14:10.528Z,101517.65
2022-08-07T04:16:31.007Z,101520.75
2022-08-07T04:19:04.095Z,101523.16
2022-08-07T04:21:59.666Z,101521.12
2022-08-07T04:24:38.741Z,101522.86
2022-08-07T04:27:15.103Z,101526.50
2022-08-07T04:30:01.390Z,101525.59
2022-08-07T04:32:34.484Z,101528.55
2022-08-07T04:35:11.280Z,101525.56
2022-08-07T04:38:03.503Z,101528.59
2022-08-07T04:40:32.225Z,101532.02
2022-08-07T04:43:03.834Z,101534.20
2022-08-07T04:45:57.798Z,101537.63
2022-08-07T04:48:36.422Z,101541.77
2022-08-07T04:51:09.263Z,101542.19
2022-08-07T04:54:05.515Z,101540.24
2022-08-07T04:58:13.927Z,101539.69
2022-08-07T05:00:10.858Z,101546.84
2022-08-07T05:02:33.207Z,101553.65
2022-08-07T05:05:51.977Z,101558.80
2022-08-07T05:08:03.959Z,101560.17
2022-08-07T05:10:40.100Z,101561.48
2022-08-07T05:14:53.515Z,101565.48
2022-08-07T05:16:09.421Z,101568.27
2022-08-07T05:18:47.464Z,101565.98
2022-08-07T05:22:00.366Z,101569.16
2022-08-07T05:24:13.162Z,101572.38
2022-08-07T05:26:46.283Z,101575.73
2022-08-07T05:29:18.065Z,101576.88
2022-08-07T05:31:53.036Z,101575.61
2022-08-07T05:34:26.166Z,101577.36
2022-08-07T05:36:57.267Z,101577.85
2022-08-07T05:40:16.687Z,101580.33
2022-08-07T05:42:33.774Z,101579.81
2022-08-07T05:45:26.231Z,101575.42
2022-08-07T05:48:02.475Z,101578.75
2022-08-07T05:50:33.776Z,101577.96
2022-08-07T05:53:02.733Z,101579.55
2022-08-07T05:56:02.023Z,101582.39
2022-08-07T05:58:36.624Z,101584.27
2022-08-07T06:01:10.570Z,101584.69
2022-08-07T06:04:01.372Z,101582.70
2022-08-07T06:06:32.607Z,101579.59
2022-08-07T06:09:04.396Z,101579.40
2022-08-07T06:11:34.049Z,101580.37
2022-08-07T06:14:11.884Z,101582.20
2022-08-07T06:16:50.700Z,101581.20
2022-08-07T06:19:52.212Z,101579.70
2022-08-07T06:22:23.313Z,101576.79
2022-08-07T06:24:58.318Z,101579.83
2022-08-07T06:27:44.279Z,101582.27
2022-08-07T06:30:31.988Z,101584.40
2022-08-07T06:33:17.627Z,101580.81
2022-08-07T06:36:12.873Z,101583.86
2022-08-07T06:38:59.353Z,101585.31
2022-08-07T06:42:02.566Z,101586.67
2022-08-07T06:44:31.053Z,101592.67
2022-08-07T06:47:12.181Z,101590.79
2022-08-07T06:49:51.807Z,101592.92
2022-08-07T06:52:36.583Z,101595.21
2022-08-07T06:55:32.758Z,101598.77
2022-08-07T06:58:10.243Z,101600.66
2022-08-07T07:00:42.394Z,101598.73
2022-08-07T07:03:13.907Z,101599.08
2022-08-07T07:06:02.739Z,101598.34
2022-08-07T07:08:34.255Z,101597.82
2022-08-07T07:11:13.994Z,101599.91
2022-08-07T07:13:58.781Z,101593.71
2022-08-07T07:16:49.564Z,101590.86
2022-08-07T07:19:57.281Z,101592.06
2022-08-07T07:22:33.852Z,101593.55
2022-08-07T07:26:31.498Z,101589.73
2022-08-07T07:28:03.202Z,101589.45
2022-08-07T07:30:38.404Z,101584.84
2022-08-07T07:33:13.511Z,101582.92
2022-08-07T07:36:03.962Z,101583.02
2022-08-07T07:38:38.603Z,101580.86
2022-08-07T07:41:12.082Z,101580.56
2022-08-07T07:43:47.863Z,101583.58
2022-08-07T07:46:53.945Z,101576.98
2022-08-07T07:50:35.830Z,101575.24
2022-08-07T07:52:17.932Z,101578.27
2022-08-07T07:54:51.265Z,101578.84
2022-08-07T07:57:43.948Z,101579.83
2022-08-07T08:00:15.031Z,101577.11
2022-08-07T08:03:05.217Z,101575.95
2022-08-07T08:05:53.655Z,101575.77
2022-08-07T08:08:35.112Z,101581.96
2022-08-07T08:11:16.191Z,101578.61
2022-08-07T08:13:58.751Z,101572.88
2022-08-07T08:16:32.328Z,101570.15
2022-08-07T08:19:17.963Z,101571.48
2022-08-07T08:22:17.180Z,101570.64
2022-08-07T08:25:24.907Z,101569.77
2022-08-07T08:28:03.482Z,101568.23
2022-08-07T08:30:34.807Z,101566.16
2022-08-07T08:33:10.354Z,101568.38
2022-08-07T08:35:49.910Z,101567.61
2022-08-07T08:38:25.904Z,101563.98
2022-08-07T08:41:08.159Z,101571.88
2022-08-07T08:43:58.659Z,101574.38
2022-08-07T08:46:38.229Z,101577.42
2022-08-07T08:49:17.186Z,101574.73
2022-08-07T08:52:14.313Z,101576.41
2022-08-07T08:54:52.532Z,101573.82
2022-08-07T08:57:30.344Z,101582.39
2022-08-07T09:00:06.305Z,101585.20
2022-08-07T09:02:49.526Z,101576.59
2022-08-07T09:05:36.931Z,101565.86
2022-08-07T09:08:17.858Z,101569.95
2022-08-07T09:11:02.913Z,101574.38
2022-08-07T09:13:38.293Z,101568.98
2022-08-07T09:16:23.408Z,101569.68
2022-08-07T09:19:50.786Z,101560.61
2022-08-07T09:24:28.153Z,101554.38
2022-08-07T09:25:17.308Z,101556.39
2022-08-07T09:28:04.713Z,101552.96
2022-08-07T09:30:56.952Z,101552.63
2022-08-07T09:33:52.639Z,101548.44
2022-08-07T09:36:35.380Z,101547.88
2022-08-07T09:39:53.867Z,101546.48
2022-08-07T09:42:33.596Z,101546.95
2022-08-07T09:47:25.943Z,101546.21
2022-08-07T09:48:18.794Z,101542.60
2022-08-07T09:50:56.636Z,101535.06
2022-08-07T09:53:40.778Z,101530.84
2022-08-07T09:56:39.386Z,101530.66
2022-08-07T09:59:35.682Z,101528.70
2022-08-07T10:02:33.002Z,101523.69
2022-08-07T10:05:58.205Z,101521.76
2022-08-07T10:08:49.586Z,101518.16
2022-08-07T10:12:03.154Z,101520.77
2022-08-07T10:14:41.089Z,101519.23
2022-08-07T10:17:22.602Z,101514.73
2022-08-07T10:20:14.518Z,101514.59
2022-08-07T10:23:13.469Z,101509.25
2022-08-07T10:25:57.969Z,101510.16
2022-08-07T10:28:49.408Z,101508.95
2022-08-07T10:31:38.973Z,101513.03
2022-08-07T10:34:32.007Z,101519.73
2022-08-07T10:37:14.161Z,101517.66
2022-08-07T10:40:02.595Z,101511.89
2022-08-07T10:42:38.704Z,101510.45
2022-08-07T10:45:45.083Z,101504.30
2022-08-07T10:48:21.893Z,101511.94
2022-08-07T10:50:54.945Z,101508.27
2022-08-07T10:53:44.496Z,101504.48
2022-08-07T10:56:31.398Z,101498.78
2022-08-07T10:59:13.486Z,101495.64
2022-08-07T11:02:04.889Z,101489.89
2022-08-07T11:04:55.464Z,101491.73
2022-08-07T11:07:59.277Z,101491.42
2022-08-07T11:10:20.206Z,101487.45
2022-08-07T11:13:04.827Z,101481.45
2022-08-07T11:15:40.161Z,101481.74
2022-08-07T11:18:20.443Z,101483.64
2022-08-07T11:20:59.561Z,101479.68
2022-08-07T11:23:38.514Z,101478.84
2022-08-07T11:26:16.890Z,101477.79
2022-08-07T11:28:55.257Z,101473.28
2022-08-07T11:31:35.288Z,101477.32
2022-08-07T11:34:16.489Z,101473.52
2022-08-07T11:37:00.479Z,101471.34
2022-08-07T11:40:00.036Z,101466.36
2022-08-07T11:42:40.137Z,101466.27
2022-08-07T11:45:20.715Z,101466.08
2022-08-07T11:48:29.365Z,101459.39
2022-08-07T11:51:41.434Z,101457.78
2022-08-07T11:54:31.125Z,101453.76
2022-08-07T11:57:15.935Z,101455.02
2022-08-07T12:00:19.231Z,101452.41
2022-08-07T12:03:03.420Z,101452.39
2022-08-07T12:05:49.560Z,101448.48
2022-08-07T12:08:31.884Z,101452.39
2022-08-07T12:11:21.119Z,101454.13
2022-08-07T12:13:59.346Z,101451.23
2022-08-07T12:16:41.463Z,101445.94
2022-08-07T12:19:22.068Z,101439.66
2022-08-07T12:22:38.781Z,101433.59
2022-08-07T12:26:05.882Z,101436.09
2022-08-07T12:28:31.099Z,101433.80
2022-08-07T12:31:09.349Z,101429.85
2022-08-07T12:34:01.405Z,101432.45
2022-08-07T12:36:50.156Z,101426.64
2022-08-07T12:39:43.833Z,101425.00
2022-08-07T12:42:32.124Z,101427.89
2022-08-07T12:45:14.534Z,101426.02
2022-08-07T12:47:50.284Z,101420.56
2022-08-07T12:50:39.080Z,101418.52
2022-08-07T12:53:22.213Z,101416.94
2022-08-07T12:56:03.973Z,101417.33
2022-08-07T12:58:39.931Z,101415.13
2022-08-07T13:01:37.397Z,101418.80
2022-08-07T13:04:32.634Z,101410.29
2022-08-07T13:08:12.459Z,101411.75
2022-08-07T13:10:40.854Z,101401.23
2022-08-07T13:13:46.790Z,101401.20
2022-08-07T13:16:22.036Z,101400.43
2022-08-07T13:19:01.928Z,101403.36
2022-08-07T13:21:51.153Z,101400.57
2022-08-07T13:24:29.358Z,101399.98
2022-08-07T13:27:09.020Z,101397.02
2022-08-07T13:29:46.887Z,101396.21
2022-08-07T13:32:32.704Z,101392.23
2022-08-07T13:35:10.076Z,101386.36
2022-08-07T13:37:59.131Z,101387.19
2022-08-07T13:40:35.645Z,101382.30
2022-08-07T13:43:13.449Z,101377.73
2022-08-07T13:46:16.372Z,101379.79
2022-08-07T13:48:38.951Z,101383.30
2022-08-07T13:51:26.936Z,101379.48
2022-08-07T13:54:03.713Z,101372.35
2022-08-07T13:56:41.351Z,101369.70
2022-08-07T13:59:30.711Z,101373.07
2022-08-07T14:02:08.627Z,101368.41
2022-08-07T14:04:54.582Z,101366.86
2022-08-07T14:07:29.193Z,101362.10
2022-08-07T14:10:16.288Z,101357.30
2022-08-07T14:12:55.768Z,101358.88
2022-08-07T14:15:43.705Z,101353.90
2022-08-07T14:18:29.351Z,101357.90
2022-08-07T14:21:08.183Z,101355.55
2022-08-07T14:24:01.218Z,101354.44
2022-08-07T14:26:40.515Z,101350.50
2022-08-07T14:30:05.757Z,101347.31
2022-08-07T14:32:09.084Z,101342.83
2022-08-07T14:34:47.002Z,101336.75
2022-08-07T14:37:19.303Z,101328.58
2022-08-07T14:40:18.099Z,101331.89
2022-08-07T14:43:01.399Z,101332.66
2022-08-07T14:45:46.591Z,101332.85
2022-08-07T14:48:36.107Z,101334.50
2022-08-07T14:51:16.315Z,101326.18
2022-08-07T14:56:43.729Z,101327.56
2022-08-07T15:07:58.519Z,101322.77
2022-08-07T15:10:30.074Z,101315.27
2022-08-07T15:13:11.660Z,101313.52
2022-08-07T15:15:52.684Z,101311.39
2022-08-07T15:18:35.853Z,101308.52
2022-08-07T15:21:44.086Z,101311.07
2022-08-07T15:25:15.717Z,101307.49
2022-08-07T15:26:57.583Z,101305.77
2022-08-07T15:32:40.109Z,101302.27
2022-08-07T15:35:19.122Z,101298.27
2022-08-07T15:38:29.775Z,101301.77
2022-08-07T15:41:23.019Z,101296.06
2022-08-07T15:43:59.323Z,101295.28
2022-08-07T15:46:32.096Z,101292.46
2022-08-07T15:49:15.321Z,101291.35
2022-08-07T15:54:34.574Z,101287.10
2022-08-07T15:57:39.352Z,101286.59
2022-08-07T16:00:04.425Z,101283.79
2022-08-07T16:02:40.335Z,101278.92
2022-08-07T16:05:15.381Z,101281.51
2022-08-07T16:08:33.056Z,101281.81
2022-08-07T16:10:40.318Z,101280.55
2022-08-07T16:13:58.594Z,101276.45
2022-08-07T16:16:43.389Z,101276.87
2022-08-07T16:19:58.629Z,101277.10
2022-08-07T16:22:55.301Z,101277.90
2022-08-07T16:25:54.117Z,101276.27
2022-08-07T16:30:08.698Z,101275.05
2022-08-07T16:31:51.045Z,101274.36
2022-08-07T16:34:48.920Z,101274.98
2022-08-07T16:38:04.364Z,101273.49
2022-08-07T16:41:02.282Z,101276.27
2022-08-07T16:44:04.343Z,101272.27
2022-08-07T16:47:07.583Z,101271.48
2022-08-07T16:50:20.355Z,101272.84
2022-08-07T16:54:01.236Z,101272.98
2022-08-07T16:56:37.348Z,101274.49
2022-08-07T16:59:15.131Z,101272.85
2022-08-07T17:02:03.487Z,101270.86
2022-08-07T17:04:50.975Z,101271.90
2022-08-07T17:07:55.695Z,101274.73
2022-08-07T17:10:32.425Z,101275.13
2022-08-07T17:13:24.879Z,101279.48
2022-08-07T17:16:17.771Z,101279.75
2022-08-07T17:18:57.521Z,101283.91
2022-08-07T17:21:51.267Z,101285.66
2022-08-07T17:24:41.233Z,101285.39
2022-08-07T17:27:20.087Z,101290.37
2022-08-07T17:30:16.193Z,101299.22
2022-08-07T17:33:02.682Z,101299.59
2022-08-07T17:35:50.323Z,101297.83
2022-08-07T17:38:34.172Z,101304.96
2022-08-07T17:41:30.589Z,101300.43
2022-08-07T17:44:03.221Z,101299.40
2022-08-07T17:46:43.429Z,101299.70
2022-08-07T17:49:23.061Z,101305.16
2022-08-07T17:52:02.304Z,101307.75
2022-08-07T17:54:53.271Z,101307.84
2022-08-07T17:57:58.812Z,101310.31
2022-08-07T18:00:33.180Z,101309.98
2022-08-07T18:03:18.448Z,101310.30
2022-08-07T18:06:01.303Z,101310.25
2022-08-07T18:12:07.375Z,101319.35
2022-08-07T18:14:37.691Z,101318.87
2022-08-07T18:18:45.212Z,101318.83
2022-08-07T18:21:03.630Z,101317.81
2022-08-07T18:23:06.187Z,101318.30
2022-08-07T18:26:01.675Z,101321.79
2022-08-07T18:28:58.299Z,101322.73
2022-08-07T18:31:38.889Z,101324.56
2022-08-07T18:34:34.810Z,101323.65
2022-08-07T18:38:57.524Z,101326.91
2022-08-07T18:40:42.434Z,101327.11
2022-08-07T18:43:14.967Z,101331.99
2022-08-07T18:46:25.206Z,101332.02
2022-08-07T18:50:05.649Z,101334.05
2022-08-07T18:52:38.048Z,101335.30
2022-08-07T18:54:37.287Z,101335.77
2022-08-07T18:57:30.579Z,101341.16
2022-08-07T19:00:34.199Z,101344.89
2022-08-07T19:03:02.065Z,101347.45
2022-08-07T19:06:03.867Z,101345.30
2022-08-07T19:08:27.553Z,101345.70
2022-08-07T19:11:01.957Z,101348.57
2022-08-07T19:14:01.831Z,101348.95
2022-08-07T19:17:04.665Z,101353.49
2022-08-07T19:19:38.452Z,101352.56
2022-08-07T19:22:30.990Z,101353.84
2022-08-07T19:25:06.711Z,101350.61
2022-08-07T19:28:57.600Z,101353.54
2022-08-07T19:31:03.015Z,101354.17
2022-08-07T19:33:33.630Z,101353.23
2022-08-07T19:36:05.388Z,101357.48
2022-08-07T19:38:53.380Z,101352.30
2022-08-07T19:41:44.160Z,101349.09
2022-08-07T19:44:21.988Z,101348.27
2022-08-07T19:46:55.868Z,101351.67
2022-08-07T19:49:58.454Z,101353.83
2022-08-07T19:52:19.262Z,101355.38
2022-08-07T19:54:56.300Z,101352.20
2022-08-07T19:58:02.492Z,101352.95
2022-08-07T20:00:28.186Z,101357.41
2022-08-07T20:03:03.389Z,101353.65
2022-08-07T20:05:59.594Z,101351.69
2022-08-07T20:08:25.266Z,101356.23
2022-08-07T20:11:03.579Z,101355.13
2022-08-07T20:13:42.597Z,101358.83
2022-08-07T20:16:32.275Z,101359.41
2022-08-07T20:19:10.514Z,101360.24
2022-08-07T20:21:47.463Z,101361.98
2022-08-07T20:24:21.072Z,101359.25
2022-08-07T20:26:52.257Z,101359.02
2022-08-07T20:29:49.493Z,101363.52
2022-08-07T20:32:23.044Z,101362.83
2022-08-07T20:34:56.883Z,101357.66
2022-08-07T20:37:29.724Z,101355.86
2022-08-07T20:40:05.094Z,101361.20
2022-08-07T20:42:56.208Z,101360.14
2022-08-07T20:46:24.470Z,101362.54
2022-08-07T20:48:29.051Z,101363.54
2022-08-07T20:51:01.355Z,101366.99
2022-08-07T20:54:01.946Z,101368.17
2022-08-07T20:56:26.187Z,101369.20
2022-08-07T20:58:58.557Z,101367.58
2022-08-07T21:01:29.549Z,101365.90
2022-08-07T21:04:22.091Z,101358.77
2022-08-07T21:06:56.832Z,101360.54
2022-08-07T21:09:52.096Z,101360.20
2022-08-07T21:12:25.991Z,101357.08
2022-08-07T21:15:01.194Z,101359.40
2022-08-07T21:18:01.877Z,101357.05
2022-08-07T21:20:56.458Z,101355.89
2022-08-07T21:23:49.409Z,101361.55
2022-08-07T21:26:35.031Z,101361.92
2022-08-07T21:29:15.734Z,101361.93
2022-08-07T21:32:43.188Z,101360.44
2022-08-07T21:34:48.367Z,101362.02
2022-08-07T21:37:22.599Z,101362.83
2022-08-07T21:39:56.653Z,101361.94
2022-08-07T21:42:46.737Z,101362.12
2022-08-07T21:46:10.418Z,101359.23
2022-08-07T21:48:28.261Z,101366.48
2022-08-07T21:51:05.372Z,101366.63
2022-08-07T21:53:37.084Z,101366.13
2022-08-07T21:56:39.673Z,101368.48
2022-08-07T21:59:16.126Z,101364.74
2022-08-07T22:02:11.282Z,101363.46
2022-08-07T22:04:53.608Z,101369.29
2022-08-07T22:07:31.636Z,101372.48
2022-08-07T22:10:19.549Z,101367.41
2022-08-07T22:12:54.144Z,101368.70
2022-08-07T22:16:39.161Z,101372.92
2022-08-07T22:18:19.346Z,101379.29
2022-08-07T22:20:52.779Z,101376.06
2022-08-07T22:23:27.287Z,101372.89
2022-08-07T22:26:05.976Z,101371.50
2022-08-07T22:28:48.308Z,101374.84
2022-08-07T22:31:45.629Z,101376.67
2022-08-07T22:34:28.882Z,101380.98
2022-08-07T22:37:12.504Z,101383.70
2022-08-07T22:39:52.736Z,101381.81
2022-08-07T22:42:29.384Z,101377.14
2022-08-07T22:45:02.422Z,101373.20
2022-08-07T22:47:49.364Z,101371.18
2022-08-07T22:50:49.546Z,101373.98
2022-08-07T22:54:07.528Z,101376.40
2022-08-07T22:56:24.288Z,101380.45
2022-08-07T22:59:32.434Z,101384.91
2022-08-07T23:02:11.885Z,101385.94
2022-08-07T23:06:09.663Z,101390.23
2022-08-07T23:07:58.106Z,101393.08
2022-08-07T23:10:41.879Z,101392.77
2022-08-07T23:13:48.345Z,101394.55
2022-08-07T23:16:46.704Z,101396.13
2022-08-07T23:19:52.185Z,101395.56
2022-08-07T23:22:39.170Z,101401.38
2022-08-07T23:25:21.062Z,101399.28
2022-08-07T23:28:21.791Z,101406.66
2022-08-07T23:31:13.826Z,101405.40
2022-08-07T23:34:37.768Z,101402.39
2022-08-07T23:37:25.022Z,101407.48
2022-08-07T23:40:08.393Z,101411.45
2022-08-07T23:42:49.679Z,101410.95
2022-08-07T23:46:01.991Z,101415.88
2022-08-07T23:48:33.970Z,101416.23
2022-08-07T23:51:12.284Z,101413.88
2022-08-07T23:53:59.330Z,101411.36
2022-08-07T23:56:38.775Z,101410.38
